Airfield :
LOGIN :

Register | Disclaimer

   EN    FR    IT 

 










Legend :    VFR   Marginal VFR   IFR   Intensive IFR   Very Intensive IFR
Visi :
Ceiling :
>= 8 km
>= 3000ft
5 to 8 km
1000 to 3000 ft
1500m to 5 km
500 to 1000 ft
800 to 1500m
200 to 500 ft
< 800m
< 200 ft
Symbols :   Thunderstorms  Fog  Heavy snow  Heavy precipitations  Wind > 20 kt
SIGMETs :     Misc.  Thunderstorms  Icing  Turbulence  Mountain Waves  Volcanic Ashes







- Airport Elevation : 512 ft
- IATA code : URO
- Download approach charts


LFOP - Rouen Vallée de Seine

CURRENT METAR :
  • 230730Z AUTO /////KT 9999 OVC028 00/M00 Q0995

EXPIRED METARs :
  • 230700Z AUTO /////KT 9999 SCT017 SCT024 BKN029 00/M01 Q0995
  • 230630Z AUTO /////KT 9999 BKN017 BKN023 M00/M01 Q0995
  • 230600Z AUTO 00000KT 9999 FEW021 BKN027 M00/M01 Q0995 BECMG 32010KT
  • 230530Z AUTO 00000KT 9999 FEW022 M00/M01 Q0995 BECMG 32010KT
  • 230500Z AUTO 00000KT CAVOK M01/M01 Q0995
  • 230430Z AUTO 00000KT CAVOK M01/M01 Q0994

TAF TAF LFOP
Valid from the 23 at 06:00 until the 24 at 06:00 UTC


230500Z 2306/2406 32010KT 8000 BKN030
TEMPO 2310/2320 3000 SHRASN BKN007 SCT015TCU
BECMG 2320/2322 3000 BR OVC002
PROB30 2400/2406 0200 FZFG VV///
ATIS : +33 2 35 80 80 34
Met : +33 2 32 86 52 80
No reported NOTAMs for that airfield.



MET'MAP, your aeronautical weather chart ! - Copyright ORBIFLY December 2007 - Disclaimer

ORBIFLY MET'MAP TEAM :

Programming & Development : Alexandra Zaïnal
Concept & Development : Baudouin d'Aumeries
Co-Development & Prog : Marc-Olivier Méhu
Technical & hardware support : Manuel Goepfert

Contact : metmap@orbifly.com




SOURCES & CREDITS :

   NOAA